Latest Weather Observations for Christmas Creek

IDW60801

Issued at 8:05 am WST Monday 24 November 2014 (issued every 30 minutes, with the page automatically refreshed every 10 minutes)

About weather observations | Map of weather stations | Latest weather observations for WA | Other Formats
Station Details ID: 505049 Name: CHRISTMAS CREEK Lat: -22.36 Lon: 119.65 Height: 437.21 m
Data from the previous 72 hours. | See also: Recent months for locations in Western Australia
Date/Time
WST
Temp
°C
App
Temp
°C
Dew
Point
Rel
Hum
%
Delta-T
°C
Wind Press
QNH
hPa
Press
MSL
hPa
Rain
since 9 am
mm
Dir
 
Spd
km/h
Gust
km/h
Spd
kts
Gust
kts
24/08:00am 32.3 26.6 4.8 17 14.7 SE 24 35 13 19 1013.1 1010.0 0.0
24/07:30am 30.4 25.2 5.5 20 13.4 SE 22 37 12 20 1013.0 1009.9 0.0
24/07:00am 29.6 25.0 5.4 21 12.9 SE 19 32 10 17 1013.0 1009.9 0.0
24/06:30am 27.9 24.3 5.1 23 12.0 S 13 19 7 10 1013.0 1009.9 0.0
24/06:00am 27.3 23.6 4.2 22 11.9 S 13 22 7 12 1012.6 1009.5 0.0
24/05:30am 26.5 22.8 4.2 24 11.4 SSW 13 17 7 9 1012.3 1009.2 0.0
24/05:00am 26.7 23.7 4.0 23 11.6 SW 9 13 5 7 1012.2 1009.1 0.0
24/04:30am 27.4 24.0 3.9 22 12.1 SW 11 15 6 8 1011.9 1008.7 0.0
24/04:00am 27.4 24.5 4.6 23 11.9 SW 9 17 5 9 1011.5 1008.3 0.0
24/03:30am 27.7 25.0 5.5 24 11.7 SW 9 15 5 8 1011.4 1008.2 0.0
24/03:00am 28.2 25.2 6.2 24 11.8 WSW 11 15 6 8 1011.3 1008.1 0.0
24/02:30am 28.4 26.1 7.5 26 11.5 WSW 9 15 5 8 1011.2 1008.0 0.0
24/02:00am 29.3 26.3 7.5 25 12.0 SW 13 20 7 11 1011.2 1008.0 0.0
24/01:30am 28.8 27.2 8.7 28 11.3 WSW 7 15 4 8 1011.1 1007.9 0.0
24/01:00am 29.1 26.8 9.1 28 11.3 N 11 13 6 7 1011.1 1007.9 0.0
24/12:30am 30.4 28.5 8.9 26 12.2 N 9 13 5 7 1011.2 1008.0 0.0
24/12:00am 31.4 29.8 8.7 24 12.9 N 7 7 4 4 1011.2 1008.0 0.0
 
Date/Time
WST
Temp
°C
App
Temp
°C
Dew
Point
Rel
Hum
%
Delta-T
°C
Wind Press
QNH
hPa
Press
MSL
hPa
Rain
since 9 am
mm
Dir
 
Spd
km/h
Gust
km/h
Spd
kts
Gust
kts
23/11:30pm 31.8 30.2 8.7 24 13.1 WNW 7 11 4 6 1011.4 1008.2 0.0
23/11:00pm 32.6 30.6 8.5 22 13.7 W 9 15 5 8 1011.7 1008.5 0.0
23/10:30pm 33.2 30.0 8.3 21 14.2 W 15 28 8 15 1011.9 1008.7 0.0
23/10:00pm 32.5 30.9 8.1 22 13.8 W 6 11 3 6 1011.9 1008.7 0.0
23/09:30pm 34.0 32.1 7.4 19 15.0 WSW 7 15 4 8 1011.6 1008.4 0.0
23/09:00pm 33.3 30.9 6.9 19 14.7 S 9 13 5 7 1011.3 1008.1 0.0
23/08:30pm 33.8 30.6 6.7 18 15.1 NW 13 17 7 9 1010.9 1007.7 0.0
23/08:00pm 34.4 31.2 6.7 18 15.5 NW 13 17 7 9 1010.6 1007.5 0.0
23/07:30pm 34.0 30.4 6.7 18 15.2 NW 15 22 8 12 1010.4 1007.3 0.0
23/07:00pm 34.5 31.2 6.5 17 15.6 NNW 13 15 7 8 1009.9 1006.7 0.0
23/06:30pm 35.9 33.0 6.5 16 16.5 NW 11 13 6 7 1009.6 1006.4 0.0
23/06:00pm 37.3 33.2 6.1 14 17.5 NW 17 24 9 13 1009.2 1006.0 0.0
23/05:30pm 37.6 33.1 6.2 14 17.7 NW 19 28 10 15 1009.2 1006.0 0.0
23/05:00pm 37.5 33.1 6.7 15 17.5 WNW 19 30 10 16 1008.9 1005.7 0.0
23/04:30pm 38.0 33.6 7.2 15 17.6 NW 20 33 11 18 1008.8 1005.6 0.0
23/04:00pm 38.0 34.3 7.8 16 17.5 W 17 32 9 17 1008.9 1005.7 0.0
23/03:30pm 37.7 36.0 7.7 16 17.3 NNW 6 15 3 8 1009.2 1006.0 0.0
23/03:00pm 37.2 35.1 6.6 15 17.3 WSW 7 19 4 10 1009.4 1006.2 0.0
23/02:30pm 37.9 35.7 6.3 14 17.8 W 7 15 4 8 1009.8 1006.6 0.0
23/02:00pm 36.8 34.7 6.6 15 17.0 SSW 7 15 4 8 1010.1 1007.0 0.0
23/01:30pm 35.6 32.0 5.2 15 16.7 WSW 13 19 7 10 1010.6 1007.5 0.0
23/01:00pm 36.2 30.3 3.9 13 17.4 W 24 37 13 20 1010.9 1007.7 0.0
23/12:30pm 36.7 32.2 2.4 11 18.1 WNW 15 26 8 14 1010.9 1007.7 0.0
23/12:00pm 37.1 32.2 2.0 11 18.5 NW 17 24 9 13 1011.4 1008.2 0.0
23/11:30am 37.0 33.3 2.5 11 18.3 NW 11 22 6 12 1011.5 1008.3 0.0
23/11:00am 36.0 32.0 2.6 12 17.6 NW 13 20 7 11 1012.1 1008.9 0.0
23/10:30am 35.7 32.8 2.8 13 17.4 S 7 22 4 12 1012.4 1009.3 0.0
23/10:00am 35.0 32.0 2.3 13 17.1 SSW 7 17 4 9 1012.7 1009.6 0.0
23/09:30am 34.2 30.5 2.4 13 16.6 S 11 22 6 12 1012.8 1009.7 0.0
23/09:00am 33.5 28.7 2.4 14 16.1 S 17 24 9 13 1012.9 1009.8 0.0
23/08:30am 33.0 27.8 2.3 14 15.9 S 19 28 10 15 1013.0 1009.9 0.0
23/08:00am 31.9 26.9 1.6 14 15.4 S 17 26 9 14 1012.8 1009.7 0.0
23/07:30am 30.6 26.6 3.0 17 14.2 S 13 19 7 10 1012.6 1009.5 0.0
23/07:00am 29.7 27.0 5.4 21 13.0 SSW 9 17 5 9 1012.4 1009.3 0.0
23/06:30am 28.3 26.3 7.1 26 11.5 SW 7 13 4 7 1012.1 1008.9 0.0
23/06:00am 27.0 25.4 8.8 31 10.1 WSW 7 9 4 5 1011.7 1008.5 0.0
23/05:30am 26.7 25.1 8.9 32 9.9 WSW 7 7 4 4 1011.3 1008.1 0.0
23/05:00am 26.8 25.5 9.3 33 9.8 WSW 6 7 3 4 1010.7 1007.6 0.0
23/04:30am 27.9 27.1 9.7 32 10.3 NW 4 6 2 3 1010.6 1007.5 0.0
23/04:00am 28.1 26.9 9.5 31 10.5 WNW 6 7 3 4 1010.4 1007.3 0.0
23/03:30am 28.2 27.0 9.7 31 10.5 NW 6 9 3 5 1010.3 1007.2 0.0
23/03:00am 28.0 27.2 9.8 32 10.4 W 4 9 2 5 1010.3 1007.2 0.0
23/02:30am 28.7 26.2 9.6 30 10.9 NNW 13 19 7 10 1010.1 1007.0 0.0
23/02:00am 29.0 25.7 9.5 29 11.1 NNW 17 20 9 11 1010.0 1006.8 0.0
23/01:30am 28.4 25.7 8.8 29 11.0 NNW 13 17 7 9 1010.0 1006.8 0.0
23/01:00am 29.1 26.9 8.0 26 11.7 NNW 9 13 5 7 1010.3 1007.2 0.0
23/12:30am 30.1 27.7 8.8 26 12.0 NW 11 17 6 9 1010.5 1007.4 0.0
23/12:00am 30.6 27.1 8.7 25 12.4 NW 17 22 9 12 1010.7 1007.6 0.0
 
Date/Time
WST
Temp
°C
App
Temp
°C
Dew
Point
Rel
Hum
%
Delta-T
°C
Wind Press
QNH
hPa
Press
MSL
hPa
Rain
since 9 am
mm
Dir
 
Spd
km/h
Gust
km/h
Spd
kts
Gust
kts
22/11:30pm 31.2 27.3 8.7 24 12.8 WNW 19 26 10 14 1011.0 1007.8 0.0
22/11:00pm 31.5 27.9 6.9 21 13.6 NW 15 20 8 11 1011.3 1008.1 0.0
22/10:30pm 32.0 27.7 5.1 18 14.5 NW 17 22 9 12 1011.3 1008.1 0.0
22/10:00pm 32.2 27.0 5.5 18 14.5 NNW 22 28 12 15 1011.1 1007.9 0.0
22/09:30pm 32.3 27.5 7.4 21 13.9 NNW 22 30 12 16 1011.1 1007.9 0.0
22/09:00pm 32.5 27.7 8.9 23 13.5 NNW 24 33 13 18 1011.0 1007.8 0.0
22/08:30pm 33.0 26.6 8.7 22 13.9 NNW 32 44 17 24 1010.7 1007.6 0.0
22/08:00pm 33.4 26.6 7.9 20 14.5 NNW 33 48 18 26 1010.6 1007.5 0.0
22/07:30pm 33.8 27.0 7.0 19 15.0 N 32 46 17 25 1010.3 1007.2 0.0
22/07:00pm 34.8 27.5 4.5 15 16.4 N 32 44 17 24 1009.9 1006.7 0.0
22/06:30pm 35.5 28.5 4.1 14 16.9 N 30 46 16 25 1009.6 1006.4 0.0
22/06:24pm 35.7 29.1 4.3 14 17.0 N 28 46 15 25 1009.5 1006.3 0.0
22/06:00pm 36.4 29.1 4.3 13 17.5 N 32 41 17 22 1009.3 1006.1 0.0
22/05:30pm 38.1 31.5 1.9 10 19.1 NNW 26 35 14 19 1009.1 1005.9 0.0
22/05:00pm 38.6 31.7 2.6 10 19.3 NNW 28 39 15 21 1008.8 1005.6 0.0
22/04:30pm 38.8 32.9 2.0 10 19.5 NW 22 39 12 21 1008.9 1005.7 0.0
22/04:00pm 39.2 33.8 2.4 10 19.7 NNW 20 35 11 19 1008.8 1005.6 0.0
22/03:30pm 38.6 32.7 1.8 10 19.5 NNW 22 33 12 18 1009.0 1005.8 0.0
22/03:00pm 40.4 33.3 1.4 9 20.7 NW 28 37 15 20 1009.1 1005.9 0.0
22/02:30pm 38.5 31.7 0.8 9 19.6 NNW 26 46 14 25 1009.5 1006.3 0.0
22/02:27pm 39.0 31.8 0.9 9 19.9 NNW 28 46 15 25 1009.4 1006.2 0.0
22/02:00pm 39.9 33.9 0.8 9 20.5 NW 22 33 12 18 1009.7 1006.5 0.0
22/01:30pm 38.7 32.2 0.6 9 19.8 NNW 24 37 13 20 1010.1 1007.0 0.0
22/01:00pm 39.2 32.5 1.3 9 20.0 NNW 26 41 14 22 1010.3 1007.2 0.0
22/12:30pm 38.8 30.9 1.1 9 19.7 N 32 43 17 23 1010.6 1007.5 0.0
22/12:29pm 39.0 31.1 1.1 9 19.9 N 32 43 17 23 1010.6 1007.5 0.0
22/12:00pm 37.9 33.7 1.4 10 19.1 N 13 22 7 12 1011.1 1007.9 0.0
22/11:30am 37.7 33.1 1.6 10 18.9 WNW 15 28 8 15 1011.6 1008.4 0.0
22/11:00am 36.7 33.7 1.7 11 18.3 WNW 7 19 4 10 1012.0 1008.8 0.0
22/10:30am 35.8 32.0 1.9 12 17.7 SW 11 20 6 11 1012.3 1009.2 0.0
22/10:00am 34.7 31.5 0.8 11 17.3 SW 7 15 4 8 1012.4 1009.3 0.0
22/09:30am 33.8 29.6 -0.7 11 17.0 SE 11 20 6 11 1012.7 1009.6 0.0
22/09:00am 33.8 29.3 -0.3 11 17.0 S 13 22 7 12 1012.8 1009.7 0.0
22/08:30am 32.1 26.8 -0.7 12 16.0 SE 17 22 9 12 1012.8 1009.7 0.0
22/08:00am 31.5 25.9 -0.1 13 15.5 SSE 19 24 10 13 1012.6 1009.5 0.0
22/07:30am 30.5 26.0 -0.3 13 15.0 S 13 19 7 10 1012.6 1009.5 0.0
22/07:00am 28.9 25.1 1.5 17 13.6 SSW 11 15 6 8 1012.5 1009.4 0.0
22/06:30am 27.1 24.3 3.2 21 12.1 S 7 11 4 6 1012.2 1009.1 0.0
22/06:00am 24.9 22.8 5.6 29 10.1 S 6 9 3 5 1011.9 1008.7 0.0
22/05:30am 23.7 21.5 6.3 32 9.1 SSW 7 9 4 5 1011.5 1008.3 0.0
22/05:00am 23.7 21.3 7.1 34 8.8 SW 9 9 5 5 1011.2 1008.0 0.0
22/04:30am 23.6 21.9 8.5 38 8.2 SW 7 9 4 5 1011.0 1007.8 0.0
22/04:00am 24.2 22.7 9.3 38 8.3 WSW 7 9 4 5 1010.6 1007.5 0.0
22/03:30am 24.4 23.6 9.7 39 8.2 SW 4 4 2 2 1010.4 1007.3 0.0
22/03:00am 25.4 24.6 9.5 36 8.9 SW 4 6 2 3 1010.3 1007.2 0.0
22/02:30am 24.9 24.4 9.3 37 8.7 SW 2 6 1 3 1010.2 1007.1 0.0
22/02:00am 26.4 25.9 9.5 34 9.5 NW 2 6 1 3 1010.1 1007.0 0.0
22/01:30am 26.9 26.1 9.5 33 9.8 NW 4 6 2 3 1010.2 1007.1 0.0
22/01:00am 27.7 26.5 9.5 32 10.3 NNW 6 9 3 5 1010.4 1007.3 0.0
22/12:30am 28.4 27.1 9.3 30 10.8 N 6 7 3 4 1010.6 1007.5 0.0
22/12:00am 29.3 28.0 9.1 28 11.4 NNW 6 9 3 5 1010.7 1007.6 0.0
 
Date/Time
WST
Temp
°C
App
Temp
°C
Dew
Point
Rel
Hum
%
Delta-T
°C
Wind Press
QNH
hPa
Press
MSL
hPa
Rain
since 9 am
mm
Dir
 
Spd
km/h
Gust
km/h
Spd
kts
Gust
kts
21/11:30pm 30.1 27.5 9.2 27 11.9 WNW 13 19 7 10 1011.0 1007.8 0.0
21/11:00pm 30.8 27.4 9.3 26 12.3 NW 17 20 9 11 1011.1 1007.9 0.0
21/10:30pm 31.7 29.1 9.3 25 12.9 WNW 13 20 7 11 1011.3 1008.1 0.0
21/10:00pm 32.7 28.9 9.2 23 13.5 WNW 19 28 10 15 1011.3 1008.1 0.0
21/09:30pm 33.8 29.8 8.9 21 14.3 W 20 32 11 17 1011.1 1007.9 0.0
21/09:00pm 33.8 30.9 8.1 20 14.6 SW 13 19 7 10 1011.0 1007.8 0.0
21/08:30pm 34.8 28.5 5.7 16 16.0 NNW 28 39 15 21 1009.8 1006.6 0.0
21/08:00pm 35.0 30.7 5.2 15 16.3 NW 17 22 9 12 1009.6 1006.4 0.0
21/07:30pm 36.0 31.7 5.2 15 16.9 NNW 17 20 9 11 1009.3 1006.1 0.0
21/07:00pm 36.6 32.4 5.6 14 17.2 NW 17 22 9 12 1009.0 1005.8 0.0
21/06:30pm 37.7 33.1 5.5 14 17.9 NW 19 26 10 14 1008.7 1005.5 0.0
21/06:00pm 38.7 33.1 5.6 13 18.6 NW 24 32 13 17 1008.5 1005.3 0.0
21/05:30pm 39.7 34.5 5.5 12 19.2 NW 22 30 12 16 1008.1 1005.0 0.0
21/05:00pm 40.0 33.6 5.2 12 19.5 NW 28 48 15 26 1008.0 1004.9 0.0
21/04:53pm 40.2 33.8 5.2 12 19.6 NW 28 48 15 26 1008.0 1004.9 0.0
21/04:30pm 40.4 34.4 5.1 11 19.8 NW 26 43 14 23 1008.1 1005.0 0.0
21/04:00pm 40.3 33.8 4.9 11 19.8 WNW 28 43 15 23 1008.0 1004.9 0.0
21/03:30pm 40.5 35.1 4.7 11 20.0 NNW 22 44 12 24 1008.2 1005.1 0.0
21/03:20pm 40.6 34.1 4.8 11 20.0 WNW 28 44 15 24 1008.3 1005.2 0.0
21/03:00pm 40.1 35.3 4.9 11 19.7 WNW 19 24 10 13 1008.6 1005.4 0.0
21/02:30pm 40.0 34.3 4.9 11 19.6 NW 24 44 13 24 1009.0 1005.8 0.0
21/02:00pm 40.7 34.7 5.2 11 20.0 WNW 26 39 14 21 1009.4 1006.2 0.0
21/01:30pm 40.6 35.0 5.4 11 19.8 W 24 35 13 19 1009.8 1006.6 0.0
21/01:00pm 39.1 35.1 4.9 12 19.0 NW 15 32 8 17 1010.3 1007.2 0.0
21/12:30pm 39.0 33.6 4.6 12 19.0 NW 22 32 12 17 1010.7 1007.6 0.0
21/12:00pm 39.2 34.4 4.4 12 19.2 W 19 32 10 17 1011.3 1008.1 0.0
21/11:30am 38.5 34.7 3.7 11 18.9 SW 13 26 7 14 1011.7 1008.5 0.0
21/11:00am 37.5 33.9 2.7 11 18.6 WSW 11 28 6 15 1012.2 1009.1 0.0
21/10:30am 36.8 33.9 2.4 11 18.2 W 7 19 4 10 1012.5 1009.4 0.0
21/10:00am 35.5 32.1 2.0 12 17.5 SW 9 19 5 10 1012.9 1009.8 0.0
21/09:30am 34.9 31.1 1.8 12 17.1 S 11 19 6 10 1013.1 1010.0 0.0
21/09:00am 34.3 30.3 3.0 14 16.5 SSE 13 22 7 12 1013.1 1010.0 0.0
21/08:30am 33.0 28.5 2.4 14 15.8 S 15 24 8 13 1013.3 1010.1 0.0

Other Formats:

Comma delimited format used in spreadsheet applications
http://www.bom.gov.au/fwo/IDW60801/IDW60801.99737.axf

JavaScript Object Notation format (JSON) in row-major order
http://www.bom.gov.au/fwo/IDW60801/IDW60801.99737.json